Latest Coastal Weather Observations for Nullarbor

IDS60701

Issued at 1:21 pm CDT Tuesday 6 December 2016 (issued every 10 minutes, with the page automatically refreshed every 10 minutes)

About coastal observations | Map of coastal stations | Coastal observations for SA | Marine services | Other Formats
Station Details ID: 018106 Name: NULLARBOR Lat: -31.45 Lon: 130.90 Height: 64.0 m
Data from the previous 72 hours. | See also: Recent months at Nullarbor
Date/Time
CDT
Temp
°C
Wind Pressure Rain since
9am
mm
Weather Cloud Vis
km
Sea
Height
m
Swell
Dir  Spd
kts
Gust
kts
hPa Trend Height
m
Period
s
Dir
06/01:00pm 24.0 SE 11 15 1015.7 - 0.2 - - 10 - - - -
06/12:30pm 24.3 SE 9 13 1015.9 - 0.2 - Partly cloudy 10 - - - -
06/12:00pm 23.5 SSE 8 12 1016.3 - 0.2 Recent precip. Partly cloudy 10 - - - -
06/11:30am 23.7 S 6 13 1016.3 - 0.2 - - 10 - - - -
06/11:00am 23.3 SE 5 11 1016.4 - 0.0 - - 10 - - - -
06/10:30am 22.7 ESE 5 8 1016.4 - 0.0 - - 10 - - - -
06/10:00am 21.3 SE 6 10 1016.3 - 0.0 - - 10 - - - -
06/09:30am 19.9 ESE 5 7 1016.3 - 0.0 - - 10 - - - -
06/09:00am 18.7 ESE 1 4 1016.5 - 0.6 - - 10 - - - -
06/08:30am 17.5 SSW 7 9 1016.4 - 0.6 - - 10 - - - -
06/08:00am 15.4 SW 8 11 1016.2 - 0.6 - - 10 - - - -
06/07:30am 14.2 NNW 3 6 1015.5 - 0.6 - - 10 - - - -
06/07:00am 13.3 WNW 4 6 1015.2 - 0.6 - - 10 - - - -
06/06:30am 13.6 N 4 6 1014.6 - 0.6 - Partly cloudy 10 - - - -
06/06:00am 14.1 N 3 5 1014.5 - 0.6 - Mostly cloudy 10 - - - -
06/05:30am 14.5 NE 4 6 1014.2 - 0.6 - Partly cloudy 10 - - - -
06/05:00am 15.1 ESE 7 9 1014.0 - 0.6 - Cloudy 10 - - - -
06/04:30am 15.1 ESE 7 10 1013.6 - 0.6 - - 10 - - - -
06/04:00am 15.2 SE 7 9 1014.4 - 0.6 - - 10 - - - -
06/03:30am 15.2 SSW 10 16 1013.4 - 0.6 - - 10 - - - -
06/03:00am 15.0 ENE 19 24 1012.3 - 0.6 Recent precip. Cloudy 10 - - - -
06/02:37am 14.8 E 20 30 1010.5 - 0.6 - Partly cloudy 9 - - - -
06/02:35am 14.9 E 19 28 1011.7 - 0.6 - Cloudy 10 - - - -
06/02:30am 15.1 E 17 21 1013.8 - 0.6 - Cloudy 9 - - - -
06/02:00am 15.5 ESE 13 16 1015.5 - 0.4 - Partly cloudy 10 - - - -
06/01:30am 15.8 SE 14 19 1016.7 - 0.4 - Cloudy 10 - - - -
06/01:00am 16.0 SSE 11 14 1017.6 - 0.4 - Cloudy 10 - - - -
06/12:30am 15.8 SE 11 15 1016.7 - 0.4 - Partly cloudy 10 - - - -
06/12:00am 15.7 SE 10 13 1016.5 - 0.4 - Cloudy 10 - - - -
 
Date/Time
CDT
Temp
°C
Wind Pressure Rain since
9am
mm
Weather Cloud Vis
km
Sea
Height
m
Swell
Dir  Spd
kts
Gust
kts
hPa Trend Height
m
Period
s
Dir
05/11:30pm 15.6 SE 15 19 1015.0 - 0.4 - Partly cloudy 10 - - - -
05/11:00pm 15.7 SE 15 21 1015.5 - 0.4 - Partly cloudy 10 - - - -
05/10:46pm 15.8 SE 15 21 1015.4 - 0.4 - Partly cloudy 7 - - - -
05/10:30pm 15.9 SSE 19 24 1014.4 - 0.2 - Partly cloudy 8 - - - -
05/10:00pm 17.0 SSE 17 24 1014.6 - 0.0 - Partly cloudy 10 - - - -
05/09:30pm 16.9 SSE 15 20 1014.0 - 0.0 - - 10 - - - -
05/09:00pm 16.9 SE 12 15 1013.2 - 0.0 - Mostly cloudy 10 - - - -
05/08:30pm 17.0 SE 16 19 1012.7 - 0.0 - - 10 - - - -
05/08:00pm 17.3 SE 15 19 1012.8 - 0.0 - - 10 - - - -
05/07:30pm 17.7 SE 13 17 1012.9 - 0.0 - - 10 - - - -
05/07:00pm 18.0 SE 15 18 1012.5 - 0.0 - - 10 - - - -
05/06:30pm 18.3 SE 16 19 1012.1 - 0.0 - - 10 - - - -
05/06:00pm 19.0 SE 15 19 1012.1 - 0.0 - - 10 - - - -
05/05:30pm 19.5 SE 15 19 1012.0 - 0.0 - - 10 - - - -
05/05:00pm 21.5 SE 14 19 1011.9 - 0.0 - - 10 - - - -
05/04:30pm 22.3 SSE 14 18 1012.2 - 0.0 - - 10 - - - -
05/04:00pm 21.5 SE 13 19 1012.4 - 0.0 - - 10 - - - -
05/03:30pm 21.2 SE 13 16 1012.9 - 0.0 - - 10 - - - -
05/03:00pm 21.6 SE 11 15 1012.9 - 0.0 - - 10 - - - -
05/02:30pm 22.4 ESE 11 16 1013.1 - 0.0 - - 10 - - - -
05/02:00pm 21.7 SE 11 17 1013.2 - 0.0 - - 10 - - - -
05/01:30pm 22.0 SE 9 16 1013.5 - 0.0 - Partly cloudy 10 - - - -
05/01:00pm 21.2 ESE 9 14 1014.0 - 0.0 - Partly cloudy 10 - - - -
05/12:30pm 21.2 ESE 9 15 1014.4 - 0.0 - Partly cloudy 10 - - - -
05/12:00pm 19.4 E 8 12 1014.5 - 0.0 - Partly cloudy 10 - - - -
05/11:30am 18.5 SE 9 12 1014.8 - 0.0 - Partly cloudy 10 - - - -
05/11:00am 18.2 SE 12 16 1014.5 - 0.0 - - 10 - - - -
05/10:30am 17.9 ESE 13 16 1014.8 - 0.0 - Partly cloudy 10 - - - -
05/10:00am 17.7 ESE 11 14 1015.5 - 0.0 - Partly cloudy 10 - - - -
05/09:30am 17.6 ESE 11 17 1015.5 - 0.0 - Cloudy 10 - - - -
05/09:00am 17.3 ESE 9 11 1015.9 - 0.0 - Cloudy 10 - - - -
05/08:30am 17.0 ESE 8 9 1016.1 - 0.0 - Partly cloudy 10 - - - -
05/08:00am 16.6 ESE 8 12 1015.2 - 0.0 - Partly cloudy 10 - - - -
05/07:30am 16.1 SE 9 12 1014.3 - 0.0 - - 10 - - - -
05/07:00am 15.7 SSE 8 10 1014.5 - 0.0 - - 10 - - - -
05/06:30am 15.4 SE 7 8 1014.4 - 0.0 - - 10 - - - -
05/06:00am 15.2 SSE 6 7 1014.7 - 0.0 - Cloudy 10 - - - -
05/05:30am 15.3 S 6 8 1014.8 - 0.0 - Partly cloudy 10 - - - -
05/05:00am 15.2 SSW 7 8 1015.0 - 0.0 - Partly cloudy 10 - - - -
05/04:30am 15.2 S 5 8 1014.8 - 0.0 - Partly cloudy 10 - - - -
05/04:00am 15.7 S 8 10 1014.3 - 0.0 - Partly cloudy 10 - - - -
05/03:30am 16.4 SSE 11 14 1013.8 - 0.0 - Partly cloudy 10 - - - -
05/03:00am 15.5 S 7 9 1014.5 - 0.0 - Cloudy 10 - - - -
05/02:30am 15.9 SW 6 8 1014.8 - 0.0 - Partly cloudy 10 - - - -
05/02:00am 14.3 SSE 8 9 1013.2 - 0.0 - Partly cloudy 10 - - - -
05/01:30am 14.7 SSE 6 7 1014.7 - 0.0 - - 10 - - - -
05/01:00am 15.4 S 8 10 1014.5 - 0.0 - Partly cloudy 10 - - - -
05/12:30am 15.4 S 9 10 1014.3 - 0.0 - - 10 - - - -
05/12:00am 15.8 S 8 11 1014.8 - 0.0 - - 10 - - - -
 
Date/Time
CDT
Temp
°C
Wind Pressure Rain since
9am
mm
Weather Cloud Vis
km
Sea
Height
m
Swell
Dir  Spd
kts
Gust
kts
hPa Trend Height
m
Period
s
Dir
04/11:30pm 16.2 S 11 14 1014.3 - 0.0 - - 10 - - - -
04/11:00pm 16.8 S 13 17 1014.0 - 0.0 - - 10 - - - -
04/10:30pm 17.1 S 13 19 1014.4 - 0.0 - - 10 - - - -
04/10:00pm 17.2 S 15 19 1013.5 - 0.0 - - 10 - - - -
04/09:30pm 17.3 SSW 17 23 1013.5 - 0.0 - - 10 - - - -
04/09:00pm 17.3 SSW 19 25 1012.8 - 0.0 - Cloudy 10 - - - -
04/08:30pm 17.8 SSW 18 24 1012.1 - 0.0 - - 10 - - - -
04/08:00pm 18.4 SSW 18 23 1012.0 - 0.0 - Partly cloudy 10 - - - -
04/07:30pm 18.6 SSW 20 26 1011.7 - 0.0 - Partly cloudy 10 - - - -
04/07:00pm 19.1 SSW 20 25 1010.7 - 0.0 - Partly cloudy 10 - - - -
04/06:30pm 20.5 SSW 23 28 1010.9 - 0.0 - Partly cloudy 10 - - - -
04/06:00pm 20.8 SSW 22 28 1010.2 - 0.0 - Partly cloudy 10 - - - -
04/05:30pm 20.6 SW 22 27 1010.4 - 0.0 - - 10 - - - -
04/05:00pm 21.2 SSW 23 30 1010.3 - 0.0 - - 10 - - - -
04/04:30pm 22.7 SW 23 29 1010.4 - 0.0 - Partly cloudy 10 - - - -
04/04:00pm 22.6 SW 24 31 1010.0 - 0.0 - Partly cloudy 10 - - - -
04/03:30pm 23.0 SW 23 31 1009.8 - 0.0 - - 9 - - - -
04/03:20pm 23.3 SW 23 33 1009.7 - 0.0 - - 9 - - - -
04/03:19pm 22.7 SW 23 33 1009.6 - 0.0 - - 9 - - - -
04/03:08pm 23.1 SW 25 31 1009.2 - 0.0 - - 7 - - - -
04/03:00pm 23.6 SW 25 32 1009.0 - 0.0 - - 10 - - - -
04/02:48pm 23.5 SW 25 35 1008.8 - 0.0 - - 10 - - - -
04/02:31pm 23.5 SW 25 33 1008.9 - 0.0 - - 9 - - - -
04/02:30pm 23.3 SW 25 33 1008.9 - 0.0 - - 9 - - - -
04/02:05pm 23.9 WSW 26 36 1008.6 - 0.0 - - 6 - - - -
04/02:00pm 23.7 WSW 28 36 1008.3 - 0.0 - - 5 - - - -
04/01:44pm 23.9 WSW 27 37 1007.9 - 0.0 - - 6 - - - -
04/01:30pm 24.2 WSW 29 37 1007.2 - 0.0 - - 3 - - - -
04/01:10pm 24.6 WSW 26 39 1006.5 - 0.0 - - 5 - - - -
04/01:00pm 25.8 WSW 25 34 1006.4 - 0.0 - - 6 - - - -
04/12:30pm 27.5 WSW 24 32 1005.8 - 0.0 - - 6 - - - -
04/12:14pm 29.4 WSW 23 29 1005.3 - 0.0 - - 7 - - - -
04/12:00pm 30.9 W 19 27 1005.1 - 0.0 - - 10 - - - -
04/11:30am 32.2 WNW 20 28 1005.0 - 0.0 - - 10 - - - -
04/11:00am 31.8 WNW 20 30 1005.0 - 0.0 - - 10 - - - -
04/10:58am 31.9 WNW 19 30 1004.9 - 0.0 - - 10 - - - -
04/10:30am 30.5 NW 21 28 1004.8 - 0.0 - - 10 - - - -
04/10:00am 30.2 WNW 22 28 1004.8 - 0.0 - - 10 - - - -
04/09:32am 30.5 NW 17 27 1004.7 - 0.0 - - 10 - - - -
04/09:30am 30.2 NW 19 25 1004.7 - 0.0 - - 10 - - - -
04/09:00am 28.0 NNW 17 23 1004.5 - 0.0 - - 10 - - - -
04/08:30am 26.6 N 18 24 1003.9 - 0.0 - - 10 - - - -
04/08:00am 25.3 N 17 23 1003.6 - 0.0 - - 10 - - - -
04/07:30am 24.7 N 20 26 1003.1 - 0.0 - - 10 - - - -
04/07:00am 24.5 N 20 28 1002.3 - 0.0 - - 10 - - - -
04/06:30am 23.7 NNE 17 22 1002.3 - 0.0 - - 10 - - - -
04/06:00am 23.2 NNE 14 17 1002.9 - 0.0 - Cloudy 10 - - - -
04/05:30am 22.4 NE 15 19 1002.6 - 0.0 - - 10 - - - -
04/05:00am 21.5 NNE 13 16 1002.9 - 0.0 - - 10 - - - -
04/04:30am 20.8 NE 10 13 1003.1 - 0.0 - - 10 - - - -
04/04:00am 20.4 ENE 11 14 1003.2 - 0.0 - - 10 - - - -
04/03:30am 20.4 E 10 13 1003.8 - 0.0 - - 10 - - - -
04/03:00am 20.4 E 11 14 1004.4 - 0.0 - Mostly cloudy 10 - - - -
04/02:30am 20.8 ESE 9 11 1005.0 - 0.0 - - 10 - - - -
04/02:00am 20.6 SSE 10 12 1005.6 - 0.0 - - 10 - - - -
04/01:30am 21.1 S 12 16 1006.3 - 0.0 - - 10 - - - -
04/01:00am 21.8 SSW 16 20 1006.7 - 0.0 - - 10 - - - -
04/12:30am 21.9 SSW 18 23 1007.0 - 0.0 - - 10 - - - -
04/12:11am 22.2 SW 21 27 1007.0 - 0.0 - - 10 - - - -
04/12:00am 22.3 WSW 20 29 1006.9 - 0.0 - Mostly clear 10 - - - -
 
Date/Time
CDT
Temp
°C
Wind Pressure Rain since
9am
mm
Weather Cloud Vis
km
Sea
Height
m
Swell
Dir  Spd
kts
Gust
kts
hPa Trend Height
m
Period
s
Dir
03/11:46pm 24.1 W 21 40 1007.4 - 0.0 - Partly cloudy 5 - - - -
03/11:43pm 24.7 W 21 40 1006.4 - 0.0 - Partly cloudy 4 - - - -
03/11:37pm 26.5 NW 19 33 1006.9 - 0.0 - Partly cloudy 7 - - - -
03/11:36pm 26.7 NNW 18 33 1006.8 - 0.0 - Partly cloudy 7 - - - -
03/11:35pm 27.4 NNW 18 33 1006.8 - 0.0 - Partly cloudy 9 - - - -
03/11:34pm 29.8 NNW 16 33 1006.6 - 0.0 - Partly cloudy 10 - - - -
03/11:30pm 30.5 N 16 20 1005.6 - 0.0 - Partly cloudy 10 - - - -
03/11:00pm 31.0 N 19 27 1004.9 - 0.0 - Partly cloudy 10 - - - -
03/10:55pm 31.3 N 19 27 1004.8 - 0.0 - Partly cloudy 10 - - - -
03/10:30pm 27.3 NE 10 15 1005.0 - 0.0 - Partly cloudy 10 - - - -
03/10:00pm 23.7 ESE 7 8 1004.3 - 0.0 - - 10 - - - -
03/09:30pm 23.6 ESE 9 11 1004.4 - 0.0 - - 10 - - - -
03/09:00pm 23.7 ESE 13 17 1004.1 - 0.0 - Partly cloudy 10 - - - -
03/08:30pm 23.8 ESE 15 20 1003.4 - 0.0 - - 10 - - - -
03/08:00pm 23.7 ESE 17 23 1002.9 - 0.0 - - 10 - - - -
03/07:30pm 25.0 ESE 21 26 1003.0 - 0.0 - - 10 - - - -
03/07:00pm 26.0 ESE 20 26 1003.3 - 0.0 - - 10 - - - -
03/06:30pm 26.9 ESE 21 25 1004.0 - 0.0 - - 10 - - - -
03/06:00pm 26.9 ESE 20 24 1005.1 - 0.0 - - 10 - - - -
03/05:30pm 27.3 ESE 18 21 1005.8 - 0.0 - - 10 - - - -
03/05:00pm 27.3 SE 18 23 1006.0 - 0.0 - - 10 - - - -
03/04:30pm 27.6 SE 18 23 1006.4 - 0.0 - - 10 - - - -
03/04:00pm 27.6 SE 18 22 1006.8 - 0.0 - - 10 - - - -
03/03:30pm 26.3 SE 17 21 1007.4 - 0.0 - - 10 - - - -
03/03:00pm 27.7 SE 15 18 1007.7 - 0.0 - - 10 - - - -
03/02:30pm 26.3 SE 13 17 1008.2 - 0.0 - - 10 - - - -
03/02:00pm 27.1 SE 13 17 1008.8 - 0.0 - - 10 - - - -
03/01:30pm 26.2 SE 12 16 1009.5 - 0.0 - - 10 - - - -

Other Formats:

Comma delimited format used in spreadsheet applications
http://www.bom.gov.au/fwo/IDS60701/IDS60701.94651.axf

JavaScript Object Notation format (JSON) in row-major order
http://www.bom.gov.au/fwo/IDS60701/IDS60701.94651.json